sensor_id;sensor_type;location;lat;lon;timestamp;temperature;humidity
52709;DHT22;38606;52.986;6.980;2023-09-19T00:01:08;15.90;99.90
52709;DHT22;38606;52.986;6.980;2023-09-19T00:03:35;15.90;99.90
52709;DHT22;38606;52.986;6.980;2023-09-19T00:06:03;15.80;99.90
52709;DHT22;38606;52.986;6.980;2023-09-19T00:08:30;15.70;99.90
52709;DHT22;38606;52.986;6.980;2023-09-19T00:10:56;15.90;99.90
52709;DHT22;38606;52.986;6.980;2023-09-19T00:13:27;15.80;99.90
52709;DHT22;38606;52.986;6.980;2023-09-19T00:15:54;16.00;99.90
52709;DHT22;38606;52.986;6.980;2023-09-19T00:18:21;15.80;99.90
52709;DHT22;38606;52.986;6.980;2023-09-19T00:20:47;15.80;99.90
52709;DHT22;38606;52.986;6.980;2023-09-19T00:23:14;15.60;99.90
52709;DHT22;38606;52.986;6.980;2023-09-19T00:25:40;15.60;99.90
52709;DHT22;38606;52.986;6.980;2023-09-19T00:28:07;15.50;99.90
52709;DHT22;38606;52.986;6.980;2023-09-19T00:30:34;15.30;99.90
52709;DHT22;38606;52.986;6.980;2023-09-19T00:33:00;15.30;99.90
52709;DHT22;38606;52.986;6.980;2023-09-19T00:35:28;15.30;99.90
52709;DHT22;38606;52.986;6.980;2023-09-19T00:37:54;15.30;99.90
52709;DHT22;38606;52.986;6.980;2023-09-19T00:40:21;15.40;99.90
52709;DHT22;38606;52.986;6.980;2023-09-19T00:42:48;15.40;99.90
52709;DHT22;38606;52.986;6.980;2023-09-19T00:45:16;15.10;99.90
52709;DHT22;38606;52.986;6.980;2023-09-19T00:47:45;15.20;99.90
52709;DHT22;38606;52.986;6.980;2023-09-19T00:50:16;15.20;99.90
52709;DHT22;38606;52.986;6.980;2023-09-19T00:52:43;14.90;99.90
52709;DHT22;38606;52.986;6.980;2023-09-19T00:55:10;15.40;99.90
52709;DHT22;38606;52.986;6.980;2023-09-19T00:57:37;15.30;99.90
52709;DHT22;38606;52.986;6.980;2023-09-19T01:00:08;15.10;99.90
52709;DHT22;38606;52.986;6.980;2023-09-19T01:02:36;15.00;99.90
52709;DHT22;38606;52.986;6.980;2023-09-19T01:05:02;15.10;99.90
52709;DHT22;38606;52.986;6.980;2023-09-19T01:07:32;15.00;99.90
52709;DHT22;38606;52.986;6.980;2023-09-19T01:10:04;14.80;99.90
52709;DHT22;38606;52.986;6.980;2023-09-19T01:21:13;14.80;99.90
52709;DHT22;38606;52.986;6.980;2023-09-19T01:31:59;14.60;99.90
52709;DHT22;38606;52.986;6.980;2023-09-19T01:34:46;14.70;99.90
52709;DHT22;38606;52.986;6.980;2023-09-19T01:37:13;14.40;99.90
52709;DHT22;38606;52.986;6.980;2023-09-19T01:39:40;14.40;99.90
52709;DHT22;38606;52.986;6.980;2023-09-19T01:42:28;14.40;99.90
52709;DHT22;38606;52.986;6.980;2023-09-19T01:45:09;14.40;99.90
52709;DHT22;38606;52.986;6.980;2023-09-19T01:47:41;14.40;99.90
52709;DHT22;38606;52.986;6.980;2023-09-19T01:50:29;14.40;99.90
52709;DHT22;38606;52.986;6.980;2023-09-19T01:53:19;14.30;99.90
52709;DHT22;38606;52.986;6.980;2023-09-19T01:55:48;14.50;99.90
52709;DHT22;38606;52.986;6.980;2023-09-19T01:58:25;14.50;99.90
52709;DHT22;38606;52.986;6.980;2023-09-19T02:00:55;14.40;99.90
52709;DHT22;38606;52.986;6.980;2023-09-19T02:03:22;14.40;99.90
52709;DHT22;38606;52.986;6.980;2023-09-19T02:05:52;14.50;99.90
52709;DHT22;38606;52.986;6.980;2023-09-19T02:08:20;14.00;99.90
52709;DHT22;38606;52.986;6.980;2023-09-19T02:10:49;14.50;99.90
52709;DHT22;38606;52.986;6.980;2023-09-19T02:13:16;14.10;99.90
52709;DHT22;38606;52.986;6.980;2023-09-19T02:15:42;14.20;99.90
52709;DHT22;38606;52.986;6.980;2023-09-19T02:18:10;14.30;99.90
52709;DHT22;38606;52.986;6.980;2023-09-19T02:20:40;14.20;99.90
52709;DHT22;38606;52.986;6.980;2023-09-19T02:23:06;14.30;99.90
52709;DHT22;38606;52.986;6.980;2023-09-19T02:25:32;14.30;99.90
52709;DHT22;38606;52.986;6.980;2023-09-19T02:27:57;14.10;99.90
52709;DHT22;38606;52.986;6.980;2023-09-19T02:30:27;14.30;99.90
52709;DHT22;38606;52.986;6.980;2023-09-19T02:32:53;14.10;99.90
52709;DHT22;38606;52.986;6.980;2023-09-19T02:35:18;14.20;99.90
52709;DHT22;38606;52.986;6.980;2023-09-19T02:37:47;14.00;99.90
52709;DHT22;38606;52.986;6.980;2023-09-19T02:40:13;14.20;99.90
52709;DHT22;38606;52.986;6.980;2023-09-19T02:42:48;14.20;99.90
52709;DHT22;38606;52.986;6.980;2023-09-19T02:45:19;14.00;99.90
52709;DHT22;38606;52.986;6.980;2023-09-19T02:47:48;14.00;99.90
52709;DHT22;38606;52.986;6.980;2023-09-19T02:50:14;14.10;99.90
52709;DHT22;38606;52.986;6.980;2023-09-19T02:52:44;14.40;99.90
52709;DHT22;38606;52.986;6.980;2023-09-19T02:55:13;13.90;99.90
52709;DHT22;38606;52.986;6.980;2023-09-19T02:57:40;14.00;99.90
52709;DHT22;38606;52.986;6.980;2023-09-19T03:00:09;13.90;99.90
52709;DHT22;38606;52.986;6.980;2023-09-19T03:02:36;14.10;99.90
52709;DHT22;38606;52.986;6.980;2023-09-19T03:05:03;14.10;99.90
52709;DHT22;38606;52.986;6.980;2023-09-19T03:07:29;14.00;99.90
52709;DHT22;38606;52.986;6.980;2023-09-19T03:09:55;14.20;99.90
52709;DHT22;38606;52.986;6.980;2023-09-19T03:12:21;14.10;99.90
52709;DHT22;38606;52.986;6.980;2023-09-19T03:14:46;14.00;99.90
52709;DHT22;38606;52.986;6.980;2023-09-19T03:17:12;13.90;99.90
52709;DHT22;38606;52.986;6.980;2023-09-19T03:19:40;14.00;99.90
52709;DHT22;38606;52.986;6.980;2023-09-19T03:22:06;13.80;99.90
52709;DHT22;38606;52.986;6.980;2023-09-19T03:24:31;14.00;99.90
52709;DHT22;38606;52.986;6.980;2023-09-19T03:26:59;14.00;99.90
52709;DHT22;38606;52.986;6.980;2023-09-19T03:29:25;13.80;99.90
52709;DHT22;38606;52.986;6.980;2023-09-19T03:31:51;13.90;99.90
52709;DHT22;38606;52.986;6.980;2023-09-19T03:34:17;14.00;99.90
52709;DHT22;38606;52.986;6.980;2023-09-19T03:36:42;14.10;99.90
52709;DHT22;38606;52.986;6.980;2023-09-19T03:39:08;14.00;99.90
52709;DHT22;38606;52.986;6.980;2023-09-19T03:41:34;13.80;99.90
52709;DHT22;38606;52.986;6.980;2023-09-19T03:44:02;13.90;99.90
52709;DHT22;38606;52.986;6.980;2023-09-19T03:46:28;13.90;99.90
52709;DHT22;38606;52.986;6.980;2023-09-19T03:48:54;13.80;99.90
52709;DHT22;38606;52.986;6.980;2023-09-19T03:51:20;13.70;99.90
52709;DHT22;38606;52.986;6.980;2023-09-19T03:53:46;14.00;99.90
52709;DHT22;38606;52.986;6.980;2023-09-19T03:56:12;14.00;99.90
52709;DHT22;38606;52.986;6.980;2023-09-19T03:58:37;13.70;99.90
52709;DHT22;38606;52.986;6.980;2023-09-19T04:01:05;14.00;99.90
52709;DHT22;38606;52.986;6.980;2023-09-19T04:03:33;13.90;99.90
52709;DHT22;38606;52.986;6.980;2023-09-19T04:06:18;14.20;99.90
52709;DHT22;38606;52.986;6.980;2023-09-19T04:08:44;14.00;99.90
52709;DHT22;38606;52.986;6.980;2023-09-19T04:11:11;14.10;99.90
52709;DHT22;38606;52.986;6.980;2023-09-19T04:13:37;14.00;99.90
52709;DHT22;38606;52.986;6.980;2023-09-19T04:16:03;13.80;99.90
52709;DHT22;38606;52.986;6.980;2023-09-19T04:18:32;14.00;99.90
52709;DHT22;38606;52.986;6.980;2023-09-19T04:21:02;14.00;99.90
52709;DHT22;38606;52.986;6.980;2023-09-19T04:23:30;14.10;99.90
52709;DHT22;38606;52.986;6.980;2023-09-19T04:25:56;14.00;99.90
52709;DHT22;38606;52.986;6.980;2023-09-19T04:28:22;14.10;99.90
52709;DHT22;38606;52.986;6.980;2023-09-19T04:30:48;14.00;99.90
52709;DHT22;38606;52.986;6.980;2023-09-19T04:33:14;14.10;99.90
52709;DHT22;38606;52.986;6.980;2023-09-19T04:35:40;14.00;99.90
52709;DHT22;38606;52.986;6.980;2023-09-19T04:38:08;13.90;99.90
52709;DHT22;38606;52.986;6.980;2023-09-19T04:40:34;14.10;99.90
52709;DHT22;38606;52.986;6.980;2023-09-19T04:43:00;14.10;99.90
52709;DHT22;38606;52.986;6.980;2023-09-19T04:45:27;14.00;99.90
52709;DHT22;38606;52.986;6.980;2023-09-19T04:47:53;14.20;99.90
52709;DHT22;38606;52.986;6.980;2023-09-19T04:50:19;14.10;99.90
52709;DHT22;38606;52.986;6.980;2023-09-19T04:52:49;14.20;99.90
52709;DHT22;38606;52.986;6.980;2023-09-19T04:55:17;14.10;99.90
52709;DHT22;38606;52.986;6.980;2023-09-19T04:57:51;14.20;99.90
52709;DHT22;38606;52.986;6.980;2023-09-19T05:00:19;14.00;99.90
52709;DHT22;38606;52.986;6.980;2023-09-19T05:02:54;14.30;99.90
52709;DHT22;38606;52.986;6.980;2023-09-19T05:05:20;14.30;99.90
52709;DHT22;38606;52.986;6.980;2023-09-19T05:07:48;14.40;99.90
52709;DHT22;38606;52.986;6.980;2023-09-19T05:10:14;14.20;99.90
52709;DHT22;38606;52.986;6.980;2023-09-19T05:12:41;14.40;99.90
52709;DHT22;38606;52.986;6.980;2023-09-19T05:15:07;14.50;99.90
52709;DHT22;38606;52.986;6.980;2023-09-19T05:17:36;14.30;99.90
52709;DHT22;38606;52.986;6.980;2023-09-19T05:20:03;14.40;99.90
52709;DHT22;38606;52.986;6.980;2023-09-19T05:22:31;14.50;99.90
52709;DHT22;38606;52.986;6.980;2023-09-19T05:25:00;14.50;99.90
52709;DHT22;38606;52.986;6.980;2023-09-19T05:27:28;14.20;99.90
52709;DHT22;38606;52.986;6.980;2023-09-19T05:29:54;14.40;99.90
52709;DHT22;38606;52.986;6.980;2023-09-19T05:32:21;14.30;99.90
52709;DHT22;38606;52.986;6.980;2023-09-19T05:34:48;14.40;99.90
52709;DHT22;38606;52.986;6.980;2023-09-19T05:37:13;14.50;99.90
52709;DHT22;38606;52.986;6.980;2023-09-19T05:39:42;14.40;99.90
52709;DHT22;38606;52.986;6.980;2023-09-19T05:42:08;14.40;99.90
52709;DHT22;38606;52.986;6.980;2023-09-19T05:44:33;14.50;99.90
52709;DHT22;38606;52.986;6.980;2023-09-19T05:46:59;14.40;99.90
52709;DHT22;38606;52.986;6.980;2023-09-19T05:49:25;14.40;99.90
52709;DHT22;38606;52.986;6.980;2023-09-19T05:51:51;14.50;99.90
52709;DHT22;38606;52.986;6.980;2023-09-19T05:54:19;14.50;99.90
52709;DHT22;38606;52.986;6.980;2023-09-19T05:56:45;14.30;99.90
52709;DHT22;38606;52.986;6.980;2023-09-19T05:59:13;14.50;99.90
52709;DHT22;38606;52.986;6.980;2023-09-19T06:01:42;14.30;99.90
52709;DHT22;38606;52.986;6.980;2023-09-19T06:04:08;14.40;99.90
52709;DHT22;38606;52.986;6.980;2023-09-19T06:06:34;14.70;99.90
52709;DHT22;38606;52.986;6.980;2023-09-19T06:09:08;14.60;99.90
52709;DHT22;38606;52.986;6.980;2023-09-19T06:11:35;14.40;99.90
52709;DHT22;38606;52.986;6.980;2023-09-19T06:14:02;14.80;99.90
52709;DHT22;38606;52.986;6.980;2023-09-19T06:16:31;14.40;99.90
52709;DHT22;38606;52.986;6.980;2023-09-19T06:18:59;14.50;99.90
52709;DHT22;38606;52.986;6.980;2023-09-19T06:21:28;14.40;99.90
52709;DHT22;38606;52.986;6.980;2023-09-19T06:23:54;14.40;99.90
52709;DHT22;38606;52.986;6.980;2023-09-19T06:26:20;14.50;99.90
52709;DHT22;38606;52.986;6.980;2023-09-19T06:28:46;14.40;99.90
52709;DHT22;38606;52.986;6.980;2023-09-19T06:31:12;14.60;99.90
52709;DHT22;38606;52.986;6.980;2023-09-19T06:33:38;14.60;99.90
52709;DHT22;38606;52.986;6.980;2023-09-19T06:36:08;14.40;99.90
52709;DHT22;38606;52.986;6.980;2023-09-19T06:38:34;14.60;99.90
52709;DHT22;38606;52.986;6.980;2023-09-19T06:41:02;14.70;99.90
52709;DHT22;38606;52.986;6.980;2023-09-19T06:43:33;14.70;99.90
52709;DHT22;38606;52.986;6.980;2023-09-19T06:46:00;14.70;99.90
52709;DHT22;38606;52.986;6.980;2023-09-19T06:48:26;14.80;99.90
52709;DHT22;38606;52.986;6.980;2023-09-19T06:50:56;15.00;99.90
52709;DHT22;38606;52.986;6.980;2023-09-19T06:53:24;14.90;99.90
52709;DHT22;38606;52.986;6.980;2023-09-19T06:55:53;15.10;99.90
52709;DHT22;38606;52.986;6.980;2023-09-19T06:58:19;14.90;99.90
52709;DHT22;38606;52.986;6.980;2023-09-19T07:00:45;15.00;99.90
52709;DHT22;38606;52.986;6.980;2023-09-19T07:03:13;15.10;99.90
52709;DHT22;38606;52.986;6.980;2023-09-19T07:05:40;15.00;99.90
52709;DHT22;38606;52.986;6.980;2023-09-19T07:08:07;15.30;99.90
52709;DHT22;38606;52.986;6.980;2023-09-19T07:10:33;15.10;99.90
52709;DHT22;38606;52.986;6.980;2023-09-19T07:13:07;15.20;99.90
52709;DHT22;38606;52.986;6.980;2023-09-19T07:15:37;15.30;99.90
52709;DHT22;38606;52.986;6.980;2023-09-19T07:18:06;15.50;99.90
52709;DHT22;38606;52.986;6.980;2023-09-19T07:20:32;15.60;99.90
52709;DHT22;38606;52.986;6.980;2023-09-19T07:23:00;15.70;99.90
52709;DHT22;38606;52.986;6.980;2023-09-19T07:25:26;15.40;99.90
52709;DHT22;38606;52.986;6.980;2023-09-19T07:27:55;15.40;99.90
52709;DHT22;38606;52.986;6.980;2023-09-19T07:30:21;15.40;99.90
52709;DHT22;38606;52.986;6.980;2023-09-19T07:32:47;15.50;99.90
52709;DHT22;38606;52.986;6.980;2023-09-19T07:35:13;15.50;99.90
52709;DHT22;38606;52.986;6.980;2023-09-19T07:37:40;15.50;99.90
52709;DHT22;38606;52.986;6.980;2023-09-19T07:40:06;15.60;99.90
52709;DHT22;38606;52.986;6.980;2023-09-19T07:42:36;15.60;99.90
52709;DHT22;38606;52.986;6.980;2023-09-19T07:45:04;15.70;99.90
52709;DHT22;38606;52.986;6.980;2023-09-19T07:47:31;16.20;99.90
52709;DHT22;38606;52.986;6.980;2023-09-19T07:49:58;16.10;99.90
52709;DHT22;38606;52.986;6.980;2023-09-19T07:52:25;15.90;99.90
52709;DHT22;38606;52.986;6.980;2023-09-19T07:54:53;16.40;99.90
52709;DHT22;38606;52.986;6.980;2023-09-19T07:57:19;17.30;99.90
52709;DHT22;38606;52.986;6.980;2023-09-19T07:59:45;16.70;99.90
52709;DHT22;38606;52.986;6.980;2023-09-19T08:02:11;16.70;99.90
52709;DHT22;38606;52.986;6.980;2023-09-19T08:04:45;16.80;99.90
52709;DHT22;38606;52.986;6.980;2023-09-19T08:07:14;16.60;99.90
52709;DHT22;38606;52.986;6.980;2023-09-19T08:09:40;16.60;99.90
52709;DHT22;38606;52.986;6.980;2023-09-19T08:12:07;16.70;99.90
52709;DHT22;38606;52.986;6.980;2023-09-19T08:14:36;16.60;99.90
52709;DHT22;38606;52.986;6.980;2023-09-19T08:17:03;16.70;99.90
52709;DHT22;38606;52.986;6.980;2023-09-19T08:19:31;16.80;99.90
52709;DHT22;38606;52.986;6.980;2023-09-19T08:22:00;16.90;99.90
52709;DHT22;38606;52.986;6.980;2023-09-19T08:24:30;16.90;99.90
52709;DHT22;38606;52.986;6.980;2023-09-19T08:26:56;16.90;99.90
52709;DHT22;38606;52.986;6.980;2023-09-19T08:29:23;16.80;99.90
52709;DHT22;38606;52.986;6.980;2023-09-19T08:31:59;16.80;99.90
52709;DHT22;38606;52.986;6.980;2023-09-19T08:34:25;16.80;99.90
52709;DHT22;38606;52.986;6.980;2023-09-19T08:36:52;17.00;99.90
52709;DHT22;38606;52.986;6.980;2023-09-19T08:39:26;16.70;99.90
52709;DHT22;38606;52.986;6.980;2023-09-19T08:41:59;17.00;99.90
52709;DHT22;38606;52.986;6.980;2023-09-19T08:44:26;16.80;99.90
52709;DHT22;38606;52.986;6.980;2023-09-19T08:47:10;16.80;99.90
52709;DHT22;38606;52.986;6.980;2023-09-19T08:49:51;16.90;99.90
52709;DHT22;38606;52.986;6.980;2023-09-19T08:52:32;16.90;99.90
52709;DHT22;38606;52.986;6.980;2023-09-19T08:55:03;17.10;99.90
52709;DHT22;38606;52.986;6.980;2023-09-19T08:57:36;17.00;99.90
52709;DHT22;38606;52.986;6.980;2023-09-19T09:00:07;17.30;99.90
52709;DHT22;38606;52.986;6.980;2023-09-19T09:02:40;17.20;99.90
52709;DHT22;38606;52.986;6.980;2023-09-19T09:05:09;17.30;99.90
52709;DHT22;38606;52.986;6.980;2023-09-19T09:07:40;17.50;99.90
52709;DHT22;38606;52.986;6.980;2023-09-19T09:10:06;17.60;99.90
52709;DHT22;38606;52.986;6.980;2023-09-19T09:12:34;17.80;99.90
52709;DHT22;38606;52.986;6.980;2023-09-19T09:15:03;17.50;99.90
52709;DHT22;38606;52.986;6.980;2023-09-19T09:17:29;17.80;99.90
52709;DHT22;38606;52.986;6.980;2023-09-19T09:19:56;17.80;99.90
52709;DHT22;38606;52.986;6.980;2023-09-19T09:22:22;17.80;99.90
52709;DHT22;38606;52.986;6.980;2023-09-19T09:24:53;18.00;99.90
52709;DHT22;38606;52.986;6.980;2023-09-19T09:27:19;17.90;99.90
52709;DHT22;38606;52.986;6.980;2023-09-19T09:29:47;17.90;99.90
52709;DHT22;38606;52.986;6.980;2023-09-19T09:32:25;18.00;99.90
52709;DHT22;38606;52.986;6.980;2023-09-19T09:34:56;18.00;99.90
52709;DHT22;38606;52.986;6.980;2023-09-19T09:37:22;18.10;99.90
52709;DHT22;38606;52.986;6.980;2023-09-19T09:39:55;18.40;99.90
52709;DHT22;38606;52.986;6.980;2023-09-19T09:42:35;18.00;99.90
52709;DHT22;38606;52.986;6.980;2023-09-19T09:45:17;18.20;99.90
52709;DHT22;38606;52.986;6.980;2023-09-19T09:47:48;18.60;99.90
52709;DHT22;38606;52.986;6.980;2023-09-19T09:53:31;18.50;99.90
52709;DHT22;38606;52.986;6.980;2023-09-19T09:56:02;18.40;99.90
52709;DHT22;38606;52.986;6.980;2023-09-19T09:58:35;18.30;99.90
52709;DHT22;38606;52.986;6.980;2023-09-19T10:01:03;18.30;99.90
52709;DHT22;38606;52.986;6.980;2023-09-19T10:03:38;18.60;99.90
52709;DHT22;38606;52.986;6.980;2023-09-19T10:06:10;18.40;99.90
52709;DHT22;38606;52.986;6.980;2023-09-19T10:09:01;18.70;99.90
52709;DHT22;38606;52.986;6.980;2023-09-19T10:11:31;18.80;99.90
52709;DHT22;38606;52.986;6.980;2023-09-19T10:13:59;18.70;99.90
52709;DHT22;38606;52.986;6.980;2023-09-19T10:16:29;19.00;99.90
52709;DHT22;38606;52.986;6.980;2023-09-19T10:18:58;18.70;99.90
52709;DHT22;38606;52.986;6.980;2023-09-19T10:21:28;19.20;99.90
52709;DHT22;38606;52.986;6.980;2023-09-19T10:23:58;18.80;99.90
52709;DHT22;38606;52.986;6.980;2023-09-19T10:26:27;18.80;99.90
52709;DHT22;38606;52.986;6.980;2023-09-19T10:28:57;19.20;99.90
52709;DHT22;38606;52.986;6.980;2023-09-19T10:31:27;19.10;99.90
52709;DHT22;38606;52.986;6.980;2023-09-19T10:33:55;19.20;99.90
52709;DHT22;38606;52.986;6.980;2023-09-19T10:36:24;19.00;99.90
52709;DHT22;38606;52.986;6.980;2023-09-19T10:38:55;19.10;99.90
52709;DHT22;38606;52.986;6.980;2023-09-19T10:41:24;19.10;99.90
52709;DHT22;38606;52.986;6.980;2023-09-19T10:43:51;19.20;99.90
52709;DHT22;38606;52.986;6.980;2023-09-19T10:46:19;19.20;99.90
52709;DHT22;38606;52.986;6.980;2023-09-19T10:48:45;19.40;99.90
52709;DHT22;38606;52.986;6.980;2023-09-19T10:51:21;19.10;99.90
52709;DHT22;38606;52.986;6.980;2023-09-19T10:54:01;19.20;99.90
52709;DHT22;38606;52.986;6.980;2023-09-19T10:56:33;19.60;99.90
52709;DHT22;38606;52.986;6.980;2023-09-19T10:59:08;19.50;99.90
52709;DHT22;38606;52.986;6.980;2023-09-19T11:01:48;19.30;99.90
52709;DHT22;38606;52.986;6.980;2023-09-19T11:04:35;18.90;99.90
52709;DHT22;38606;52.986;6.980;2023-09-19T11:07:10;19.50;99.90
52709;DHT22;38606;52.986;6.980;2023-09-19T11:09:56;19.30;99.90
52709;DHT22;38606;52.986;6.980;2023-09-19T11:16:08;19.60;99.90
52709;DHT22;38606;52.986;6.980;2023-09-19T11:26:43;19.90;99.90
52709;DHT22;38606;52.986;6.980;2023-09-19T11:29:31;19.60;99.90
52709;DHT22;38606;52.986;6.980;2023-09-19T11:31:59;19.80;99.90
52709;DHT22;38606;52.986;6.980;2023-09-19T11:39:39;19.80;99.90
52709;DHT22;38606;52.986;6.980;2023-09-19T11:42:40;19.90;99.90
52709;DHT22;38606;52.986;6.980;2023-09-19T11:45:06;20.00;99.90
52709;DHT22;38606;52.986;6.980;2023-09-19T11:47:32;20.10;99.90
52709;DHT22;38606;52.986;6.980;2023-09-19T11:50:01;19.90;99.90
52709;DHT22;38606;52.986;6.980;2023-09-19T11:52:28;19.80;99.90
52709;DHT22;38606;52.986;6.980;2023-09-19T11:55:01;20.80;99.90
52709;DHT22;38606;52.986;6.980;2023-09-19T11:57:28;20.30;99.90
52709;DHT22;38606;52.986;6.980;2023-09-19T11:59:55;20.20;99.90
52709;DHT22;38606;52.986;6.980;2023-09-19T12:02:38;19.70;99.90
52709;DHT22;38606;52.986;6.980;2023-09-19T12:05:06;20.00;99.90
52709;DHT22;38606;52.986;6.980;2023-09-19T12:07:45;20.00;99.90
52709;DHT22;38606;52.986;6.980;2023-09-19T12:10:13;20.00;99.90
52709;DHT22;38606;52.986;6.980;2023-09-19T12:12:47;20.00;99.90
52709;DHT22;38606;52.986;6.980;2023-09-19T12:15:23;20.30;99.90
52709;DHT22;38606;52.986;6.980;2023-09-19T12:17:54;20.20;99.90
52709;DHT22;38606;52.986;6.980;2023-09-19T12:20:20;22.10;99.90
52709;DHT22;38606;52.986;6.980;2023-09-19T12:22:47;20.00;99.90
52709;DHT22;38606;52.986;6.980;2023-09-19T12:25:13;19.60;99.90
52709;DHT22;38606;52.986;6.980;2023-09-19T12:27:48;19.90;99.90
52709;DHT22;38606;52.986;6.980;2023-09-19T12:30:18;19.90;99.90
52709;DHT22;38606;52.986;6.980;2023-09-19T12:32:46;19.90;99.90
52709;DHT22;38606;52.986;6.980;2023-09-19T12:35:32;19.90;99.90
52709;DHT22;38606;52.986;6.980;2023-09-19T12:38:00;19.90;99.90
52709;DHT22;38606;52.986;6.980;2023-09-19T12:40:26;19.80;99.90
52709;DHT22;38606;52.986;6.980;2023-09-19T12:42:59;19.80;99.90
52709;DHT22;38606;52.986;6.980;2023-09-19T12:45:25;19.70;99.90
52709;DHT22;38606;52.986;6.980;2023-09-19T12:48:23;20.00;99.90
52709;DHT22;38606;52.986;6.980;2023-09-19T12:51:07;19.60;99.90
52709;DHT22;38606;52.986;6.980;2023-09-19T12:53:39;19.70;99.90
52709;DHT22;38606;52.986;6.980;2023-09-19T12:56:09;19.40;99.90
52709;DHT22;38606;52.986;6.980;2023-09-19T12:58:52;19.50;99.90
52709;DHT22;38606;52.986;6.980;2023-09-19T13:01:22;21.70;99.90
52709;DHT22;38606;52.986;6.980;2023-09-19T13:06:52;19.70;99.90
52709;DHT22;38606;52.986;6.980;2023-09-19T13:09:21;19.30;99.90
52709;DHT22;38606;52.986;6.980;2023-09-19T13:11:48;19.30;99.90
52709;DHT22;38606;52.986;6.980;2023-09-19T13:14:26;19.50;99.90
52709;DHT22;38606;52.986;6.980;2023-09-19T13:17:00;19.60;99.90
52709;DHT22;38606;52.986;6.980;2023-09-19T13:22:43;20.00;99.90
52709;DHT22;38606;52.986;6.980;2023-09-19T13:25:20;19.50;99.90
52709;DHT22;38606;52.986;6.980;2023-09-19T13:27:47;19.40;99.90
52709;DHT22;38606;52.986;6.980;2023-09-19T13:30:17;19.20;99.90
52709;DHT22;38606;52.986;6.980;2023-09-19T13:32:43;19.50;99.90
52709;DHT22;38606;52.986;6.980;2023-09-19T13:35:09;19.20;99.90
52709;DHT22;38606;52.986;6.980;2023-09-19T13:37:37;18.90;99.90
52709;DHT22;38606;52.986;6.980;2023-09-19T13:40:07;18.90;99.90
52709;DHT22;38606;52.986;6.980;2023-09-19T13:42:34;18.90;99.90
52709;DHT22;38606;52.986;6.980;2023-09-19T13:45:00;18.90;99.90
52709;DHT22;38606;52.986;6.980;2023-09-19T13:47:25;19.10;99.90
52709;DHT22;38606;52.986;6.980;2023-09-19T13:49:52;18.90;99.90
52709;DHT22;38606;52.986;6.980;2023-09-19T13:52:19;18.90;99.90
52709;DHT22;38606;52.986;6.980;2023-09-19T13:54:45;18.90;99.90
52709;DHT22;38606;52.986;6.980;2023-09-19T13:57:11;19.00;99.90
52709;DHT22;38606;52.986;6.980;2023-09-19T13:59:36;19.20;99.90
52709;DHT22;38606;52.986;6.980;2023-09-19T14:02:02;19.20;99.90
52709;DHT22;38606;52.986;6.980;2023-09-19T14:04:29;18.90;99.90
52709;DHT22;38606;52.986;6.980;2023-09-19T14:06:57;18.80;99.90
52709;DHT22;38606;52.986;6.980;2023-09-19T14:09:23;18.90;99.90
52709;DHT22;38606;52.986;6.980;2023-09-19T14:11:50;18.90;99.90
52709;DHT22;38606;52.986;6.980;2023-09-19T14:14:21;18.70;99.90
52709;DHT22;38606;52.986;6.980;2023-09-19T14:16:49;18.90;99.90
52709;DHT22;38606;52.986;6.980;2023-09-19T14:19:16;19.00;99.90
52709;DHT22;38606;52.986;6.980;2023-09-19T14:21:42;18.90;99.90
52709;DHT22;38606;52.986;6.980;2023-09-19T14:24:08;18.90;99.90
52709;DHT22;38606;52.986;6.980;2023-09-19T14:26:35;18.80;99.90
52709;DHT22;38606;52.986;6.980;2023-09-19T14:29:01;19.00;99.90
52709;DHT22;38606;52.986;6.980;2023-09-19T14:31:27;19.10;99.90
52709;DHT22;38606;52.986;6.980;2023-09-19T14:33:57;19.00;99.90
52709;DHT22;38606;52.986;6.980;2023-09-19T14:36:23;19.00;99.90
52709;DHT22;38606;52.986;6.980;2023-09-19T14:38:52;19.20;99.90
52709;DHT22;38606;52.986;6.980;2023-09-19T14:41:23;19.20;99.90
52709;DHT22;38606;52.986;6.980;2023-09-19T14:43:51;19.10;99.90
52709;DHT22;38606;52.986;6.980;2023-09-19T14:46:16;19.30;99.90
52709;DHT22;38606;52.986;6.980;2023-09-19T14:48:44;19.10;99.90
52709;DHT22;38606;52.986;6.980;2023-09-19T14:51:13;19.40;99.90
52709;DHT22;38606;52.986;6.980;2023-09-19T14:53:42;19.20;99.90
52709;DHT22;38606;52.986;6.980;2023-09-19T14:56:09;19.40;99.90
52709;DHT22;38606;52.986;6.980;2023-09-19T14:58:34;19.20;99.90
52709;DHT22;38606;52.986;6.980;2023-09-19T15:01:08;19.30;99.90
52709;DHT22;38606;52.986;6.980;2023-09-19T15:03:36;19.30;99.90
52709;DHT22;38606;52.986;6.980;2023-09-19T15:06:03;19.40;99.90
52709;DHT22;38606;52.986;6.980;2023-09-19T15:08:30;19.20;99.90
52709;DHT22;38606;52.986;6.980;2023-09-19T15:10:56;19.30;99.90
52709;DHT22;38606;52.986;6.980;2023-09-19T15:13:24;19.10;99.90
52709;DHT22;38606;52.986;6.980;2023-09-19T15:16:02;19.20;99.90
52709;DHT22;38606;52.986;6.980;2023-09-19T15:18:29;19.30;99.90
52709;DHT22;38606;52.986;6.980;2023-09-19T15:21:03;19.20;99.90
52709;DHT22;38606;52.986;6.980;2023-09-19T15:23:36;19.10;99.90
52709;DHT22;38606;52.986;6.980;2023-09-19T15:26:03;19.10;99.90
52709;DHT22;38606;52.986;6.980;2023-09-19T15:28:29;19.00;99.90
52709;DHT22;38606;52.986;6.980;2023-09-19T15:31:06;19.30;99.90
52709;DHT22;38606;52.986;6.980;2023-09-19T15:33:33;19.00;99.90
52709;DHT22;38606;52.986;6.980;2023-09-19T15:38:57;19.10;99.90
52709;DHT22;38606;52.986;6.980;2023-09-19T15:41:31;18.70;99.90
52709;DHT22;38606;52.986;6.980;2023-09-19T15:43:58;19.20;99.90
52709;DHT22;38606;52.986;6.980;2023-09-19T15:46:27;18.90;99.90
52709;DHT22;38606;52.986;6.980;2023-09-19T15:48:56;18.90;99.90
52709;DHT22;38606;52.986;6.980;2023-09-19T15:51:22;18.70;99.90
52709;DHT22;38606;52.986;6.980;2023-09-19T15:53:49;18.90;99.90
52709;DHT22;38606;52.986;6.980;2023-09-19T15:56:16;18.80;99.90
52709;DHT22;38606;52.986;6.980;2023-09-19T15:58:46;19.20;99.90
52709;DHT22;38606;52.986;6.980;2023-09-19T16:01:13;18.90;99.90
52709;DHT22;38606;52.986;6.980;2023-09-19T16:03:40;19.00;99.90
52709;DHT22;38606;52.986;6.980;2023-09-19T16:06:13;19.00;99.90
52709;DHT22;38606;52.986;6.980;2023-09-19T16:08:40;18.80;99.90
52709;DHT22;38606;52.986;6.980;2023-09-19T16:11:07;18.60;99.90
52709;DHT22;38606;52.986;6.980;2023-09-19T16:13:33;18.90;99.90
52709;DHT22;38606;52.986;6.980;2023-09-19T16:15:59;18.60;99.90
52709;DHT22;38606;52.986;6.980;2023-09-19T16:18:24;18.50;99.90
52709;DHT22;38606;52.986;6.980;2023-09-19T16:20:50;18.70;99.90
52709;DHT22;38606;52.986;6.980;2023-09-19T16:23:16;18.70;99.90
52709;DHT22;38606;52.986;6.980;2023-09-19T16:25:42;18.80;99.90
52709;DHT22;38606;52.986;6.980;2023-09-19T16:28:08;18.80;99.90